Time;durP1;ratioP1;P1;durP2;ratioP2;P2;SDS_P1;SDS_P2;PMS_P1;PMS_P2;Temp;Humidity;BMP_temperature;BMP_pressure;BME280_temperature;BME280_humidity;BME280_pressure;Samples;Min_cycle;Max_cycle;Signal;HPM_P1;HPM_P2
2022/12/17 13:08:18;;;;;;;35.90;25.10;;;-1.40;79.80;;;;;;5017591;28;20777;-74
2022/12/17 13:10:45;;;;;;;33.33;21.50;;;-1.30;79.20;;;;;;5013314;28;20495;-74
2022/12/17 13:13:24;;;;;;;34.30;24.53;;;-1.00;78.70;;;;;;5016249;28;20460;-74
2022/12/17 13:15:54;;;;;;;38.83;26.43;;;-0.60;78.60;;;;;;5016505;28;20528;-74
2022/12/17 13:18:28;;;;;;;31.57;24.47;;;0.20;76.80;;;;;;5015907;28;20952;-75
2022/12/17 13:21:01;;;;;;;38.67;27.30;;;1.10;73.60;;;;;;5016029;28;20540;-74
2022/12/17 13:23:32;;;;;;;32.37;23.27;;;2.70;71.20;;;;;;5015761;28;20820;-75
2022/12/17 13:26:19;;;;;;;38.37;25.77;;;4.60;64.30;;;;;;5016121;28;20429;-74
2022/12/17 13:29:10;;;;;;;34.40;28.00;;;6.70;57.60;;;;;;5015964;28;20421;-75
2022/12/17 13:31:50;;;;;;;33.90;25.50;;;8.20;54.50;;;;;;5015978;28;20507;-74
2022/12/17 13:34:24;;;;;;;32.63;27.17;;;9.10;51.50;;;;;;5017112;28;20440;-76
2022/12/17 13:36:59;;;;;;;33.00;27.57;;;9.90;48.80;;;;;;5016725;28;20475;-74
2022/12/17 13:39:36;;;;;;;35.63;28.30;;;9.90;48.10;;;;;;5016352;28;20436;-75
2022/12/17 13:42:03;;;;;;;31.60;26.10;;;10.10;47.50;;;;;;5016239;28;20895;-75
2022/12/17 13:44:38;;;;;;;38.33;28.40;;;10.30;46.60;;;;;;5016279;28;20455;-74
2022/12/17 13:47:06;;;;;;;37.80;28.90;;;9.90;46.80;;;;;;5015834;28;20441;-75
2022/12/17 13:49:33;;;;;;;34.10;27.27;;;9.90;47.70;;;;;;5016353;28;20495;-76
2022/12/17 13:52:01;;;;;;;34.50;27.20;;;10.30;47.30;;;;;;5015960;28;20488;-75
2022/12/17 13:54:28;;;;;;;33.47;29.37;;;10.70;46.00;;;;;;5016217;28;20468;-75
2022/12/17 13:57:06;;;;;;;35.73;31.27;;;11.00;45.60;;;;;;5015988;28;20461;-76
2022/12/17 13:59:34;;;;;;;40.57;31.80;;;10.10;45.50;;;;;;5016400;28;20836;-75
2022/12/17 14:02:01;;;;;;;43.17;33.70;;;9.80;46.40;;;;;;5014845;28;20570;-75
2022/12/17 14:04:29;;;;;;;46.03;34.47;;;8.90;47.60;;;;;;5015740;28;20452;-75
2022/12/17 14:06:59;;;;;;;37.80;29.63;;;7.90;49.60;;;;;;5015160;28;20447;-74
2022/12/17 14:09:32;;;;;;;43.50;31.00;;;7.60;49.90;;;;;;5015086;28;20453;-72
2022/12/17 14:14:57;;;;;;;42.63;30.20;;;5.20;54.30;;;;;;4979452;28;20844;-73
2022/12/17 14:17:26;;;;;;;40.17;31.43;;;4.20;56.90;;;;;;5014967;28;20432;-73
2022/12/17 14:19:58;;;;;;;48.83;32.60;;;3.50;59.00;;;;;;5014957;28;20816;-73
2022/12/17 14:22:32;;;;;;;48.80;33.40;;;3.30;59.60;;;;;;5014941;28;20491;-73
2022/12/17 14:24:59;;;;;;;43.30;33.20;;;2.70;60.90;;;;;;5014901;28;20467;-73
2022/12/17 14:27:31;;;;;;;48.63;33.53;;;1.90;62.90;;;;;;5014766;28;20447;-72
2022/12/17 14:30:00;;;;;;;38.93;30.33;;;1.10;65.40;;;;;;5014740;28;20441;-71
2022/12/17 14:32:32;;;;;;;45.13;31.80;;;0.30;67.70;;;;;;5014528;28;20515;-71
2022/12/17 14:34:59;;;;;;;43.13;30.87;;;-0.30;70.00;;;;;;5014384;28;20854;-71
2022/12/17 14:37:27;;;;;;;45.37;31.57;;;-0.90;71.90;;;;;;5014534;28;20453;-71
2022/12/17 14:39:59;;;;;;;38.27;30.90;;;-1.30;73.70;;;;;;5014219;28;20451;-73
2022/12/17 14:42:28;;;;;;;49.80;33.40;;;-1.50;74.50;;;;;;5014415;28;20836;-71
2022/12/17 14:44:57;;;;;;;47.63;32.30;;;-1.70;75.30;;;;;;5014425;28;20457;-73
2022/12/17 14:47:27;;;;;;;53.00;34.37;;;-1.80;75.80;;;;;;5014356;28;20456;-72
2022/12/17 14:50:04;;;;;;;52.23;30.57;;;-2.20;76.40;;;;;;5014076;28;20928;-72
2022/12/17 14:52:36;;;;;;;45.57;31.93;;;-2.50;77.80;;;;;;5014167;28;20487;-73
2022/12/17 14:55:17;;;;;;;56.23;38.20;;;-2.50;78.10;;;;;;5014280;28;20440;-73
2022/12/17 14:57:44;;;;;;;57.60;35.43;;;-2.60;78.20;;;;;;5014097;28;20483;-73
2022/12/17 15:00:12;;;;;;;46.17;32.43;;;-2.60;78.60;;;;;;5014135;28;20823;-73
2022/12/17 15:02:42;;;;;;;44.20;32.37;;;-2.50;78.30;;;;;;5013740;28;20498;-73
2022/12/17 15:05:13;;;;;;;53.60;35.40;;;-2.40;77.90;;;;;;5014078;28;20455;-73
2022/12/17 15:07:41;;;;;;;51.20;33.90;;;-2.20;77.30;;;;;;5014167;28;20460;-73
2022/12/17 15:10:11;;;;;;;51.73;33.93;;;-2.40;77.30;;;;;;5013962;28;20449;-73
2022/12/17 15:12:41;;;;;;;47.50;33.07;;;-2.30;77.10;;;;;;5013904;28;20480;-73
2022/12/17 15:15:12;;;;;;;54.10;33.67;;;-2.40;77.10;;;;;;5013265;28;20445;-73
2022/12/17 15:17:41;;;;;;;48.23;32.00;;;-2.50;76.70;;;;;;5014021;28;20436;-73
2022/12/17 15:20:15;;;;;;;47.13;31.93;;;-2.40;76.50;;;;;;5013857;28;20448;-73
2022/12/17 15:22:42;;;;;;;49.07;33.37;;;-2.40;76.60;;;;;;5013830;28;20482;-73
2022/12/17 15:25:11;;;;;;;45.20;31.47;;;-2.40;76.10;;;;;;5013778;28;20468;-72
2022/12/17 15:27:38;;;;;;;48.80;31.77;;;-2.30;75.90;;;;;;5013756;28;20448;-72
2022/12/17 15:30:06;;;;;;;46.53;32.77;;;-2.30;75.50;;;;;;5013723;28;20456;-74
2022/12/17 15:32:33;;;;;;;43.53;31.63;;;-2.30;75.40;;;;;;5013623;28;20599;-73
2022/12/17 15:35:01;;;;;;;43.40;28.00;;;-2.30;75.10;;;;;;5013611;28;20452;-73
2022/12/17 15:37:28;;;;;;;42.80;31.00;;;-2.30;75.00;;;;;;5013629;28;20452;-73
2022/12/17 15:39:55;;;;;;;46.00;30.87;;;-2.30;74.70;;;;;;5013255;28;20949;-72
2022/12/17 15:45:07;;;;;;;39.40;31.10;;;-2.30;74.40;;;;;;5013661;28;20428;-73
2022/12/17 15:47:33;;;;;;;45.37;31.07;;;-2.30;74.00;;;;;;5013273;28;20961;-73
2022/12/17 15:50:02;;;;;;;39.87;30.43;;;-2.30;73.70;;;;;;5013496;28;20484;-73
2022/12/17 15:52:28;;;;;;;40.50;29.33;;;-2.40;73.60;;;;;;5013310;28;20495;-73
2022/12/17 15:54:55;;;;;;;42.67;29.43;;;-2.40;73.70;;;;;;5013422;28;20443;-73
2022/12/17 15:57:22;;;;;;;39.87;30.40;;;-2.50;73.50;;;;;;5013436;28;20447;-73
2022/12/17 15:59:50;;;;;;;39.03;28.90;;;-2.50;73.30;;;;;;5013322;28;20457;-73
2022/12/17 16:02:17;;;;;;;37.33;28.50;;;-2.50;73.30;;;;;;5012953;28;20485;-73
2022/12/17 16:04:43;;;;;;;44.37;30.03;;;-2.60;73.30;;;;;;5013331;28;20455;-73
2022/12/17 16:07:12;;;;;;;41.13;30.20;;;-2.60;73.60;;;;;;5013378;28;20448;-73
2022/12/17 16:09:38;;;;;;;35.80;26.87;;;-2.70;74.10;;;;;;5013272;28;20455;-72
2022/12/17 16:12:06;;;;;;;41.67;27.57;;;-2.70;74.60;;;;;;5013112;28;20848;-73
2022/12/17 16:14:32;;;;;;;40.03;29.60;;;-2.70;74.90;;;;;;5013844;28;20452;-72
2022/12/17 16:16:59;;;;;;;37.73;27.33;;;-2.70;74.90;;;;;;5013206;28;20448;-73
2022/12/17 16:19:26;;;;;;;36.67;27.30;;;-2.70;74.60;;;;;;5013143;28;20460;-72
2022/12/17 16:21:53;;;;;;;38.70;28.87;;;-2.80;74.40;;;;;;5013115;28;20471;-73
2022/12/17 16:24:21;;;;;;;35.23;26.53;;;-2.80;74.30;;;;;;5013193;28;20455;-71
2022/12/17 16:26:48;;;;;;;41.63;28.50;;;-2.80;74.40;;;;;;5014796;28;20450;-73
2022/12/17 16:29:14;;;;;;;35.87;26.87;;;-2.70;74.40;;;;;;5017024;28;20458;-74
2022/12/17 16:31:41;;;;;;;43.33;26.17;;;-2.70;74.20;;;;;;5016518;28;21004;-72
2022/12/17 16:34:09;;;;;;;37.47;27.30;;;-2.70;74.10;;;;;;5016877;28;20455;-73
2022/12/17 16:36:36;;;;;;;33.50;24.83;;;-2.80;74.20;;;;;;5016933;28;20484;-74
2022/12/17 16:39:03;;;;;;;38.80;27.77;;;-2.80;74.10;;;;;;5016801;28;20466;-73
2022/12/17 16:41:32;;;;;;;38.60;27.37;;;-2.80;74.00;;;;;;5016387;28;20977;-72
2022/12/17 16:43:59;;;;;;;39.33;28.10;;;-2.70;73.90;;;;;;5016757;28;20448;-72
2022/12/17 16:46:28;;;;;;;35.47;26.00;;;-2.70;73.60;;;;;;5016684;28;20461;-74
2022/12/17 16:48:56;;;;;;;42.03;27.67;;;-2.70;73.40;;;;;;5016322;28;20785;-72
2022/12/17 16:51:24;;;;;;;42.37;29.63;;;-2.70;73.20;;;;;;5016140;28;20475;-73
2022/12/17 16:53:51;;;;;;;34.67;25.63;;;-2.70;73.30;;;;;;5016553;28;20458;-73
2022/12/17 16:56:20;;;;;;;46.53;32.27;;;-2.90;73.00;;;;;;5016417;28;20448;-73
2022/12/17 16:58:48;;;;;;;46.57;34.60;;;-3.20;73.40;;;;;;5016440;28;20814;-72
2022/12/17 17:01:19;;;;;;;41.70;30.30;;;-3.30;74.70;;;;;;5016099;28;20480;-72
2022/12/17 17:03:46;;;;;;;45.80;34.20;;;-3.20;74.50;;;;;;5016436;28;20463;-72
2022/12/17 17:06:13;;;;;;;41.13;30.30;;;-3.20;74.10;;;;;;5016071;28;20944;-71
2022/12/17 17:08:40;;;;;;;45.73;32.60;;;-3.20;73.80;;;;;;5015924;28;20516;-72
2022/12/17 17:11:09;;;;;;;42.93;30.90;;;-3.30;73.70;;;;;;5016186;28;20571;-72
2022/12/17 17:13:36;;;;;;;48.90;34.20;;;-3.50;74.00;;;;;;5016140;28;20480;-72
2022/12/17 17:16:05;;;;;;;36.80;29.43;;;-3.90;75.70;;;;;;5015812;28;21062;-72
2022/12/17 17:18:32;;;;;;;36.10;26.70;;;-4.10;77.40;;;;;;5016097;28;20475;-71
2022/12/17 17:21:25;;;;;;;42.93;29.70;;;-4.30;78.50;;;;;;5015699;28;20530;-72
2022/12/17 17:23:54;;;;;;;46.03;30.57;;;-4.30;79.20;;;;;;5016004;28;20425;-73
2022/12/17 17:26:21;;;;;;;46.20;29.53;;;-4.20;79.30;;;;;;5015942;28;20798;-73
2022/12/17 17:28:49;;;;;;;42.00;28.17;;;-4.00;78.60;;;;;;5015902;28;20460;-73
2022/12/17 17:31:17;;;;;;;33.77;26.40;;;-3.90;77.50;;;;;;5015681;28;20977;-74
2022/12/17 17:33:47;;;;;;;40.60;30.70;;;-3.80;76.90;;;;;;5015762;28;20480;-73
2022/12/17 17:36:16;;;;;;;33.90;26.30;;;-3.70;76.00;;;;;;5015508;28;20970;-73
2022/12/17 17:38:43;;;;;;;46.50;30.90;;;-3.60;75.60;;;;;;5014367;28;20942;-73
2022/12/17 17:41:15;;;;;;;33.77;27.37;;;-3.60;75.00;;;;;;5015554;28;20476;-72
2022/12/17 17:43:42;;;;;;;43.27;31.63;;;-3.50;74.50;;;;;;5015685;28;20464;-73
2022/12/17 17:46:11;;;;;;;41.27;31.00;;;-3.50;74.20;;;;;;5015534;28;20444;-73
2022/12/17 17:48:39;;;;;;;46.33;30.80;;;-3.60;74.00;;;;;;5015521;28;20453;-74
2022/12/17 17:51:08;;;;;;;39.40;28.00;;;-3.50;73.80;;;;;;5015354;28;20465;-74
2022/12/17 17:53:35;;;;;;;47.20;33.47;;;-3.50;73.10;;;;;;5015009;28;20491;-74
2022/12/17 17:56:03;;;;;;;49.50;30.93;;;-3.60;73.00;;;;;;5015343;28;20452;-71
2022/12/17 17:58:30;;;;;;;38.57;29.03;;;-3.50;73.20;;;;;;5015318;28;20445;-72
2022/12/17 18:00:57;;;;;;;51.10;32.17;;;-3.50;73.10;;;;;;5014990;28;20487;-72
2022/12/17 18:03:24;;;;;;;41.60;31.57;;;-3.50;72.90;;;;;;5015295;28;20435;-72
2022/12/17 18:05:52;;;;;;;42.27;29.20;;;-3.60;72.40;;;;;;5015163;28;20448;-71
2022/12/17 18:08:19;;;;;;;45.23;32.97;;;-3.60;72.50;;;;;;5014804;28;20948;-70
2022/12/17 18:10:55;;;;;;;40.40;29.60;;;-3.60;72.70;;;;;;5014956;28;20468;-71
2022/12/17 18:16:07;;;;;;;43.07;29.20;;;-3.60;72.70;;;;;;5014982;28;20420;-71
2022/12/17 18:18:34;;;;;;;42.90;30.83;;;-3.60;72.30;;;;;;5014630;28;20904;-72
2022/12/17 18:21:07;;;;;;;45.73;31.00;;;-3.60;72.20;;;;;;5014805;28;20477;-72
2022/12/17 18:23:34;;;;;;;49.90;32.13;;;-3.70;72.30;;;;;;5014545;28;20455;-70
2022/12/17 18:26:05;;;;;;;42.10;31.40;;;-3.70;72.20;;;;;;5014513;28;20985;-71
2022/12/17 18:28:32;;;;;;;46.40;34.00;;;-3.70;72.60;;;;;;5014850;28;20502;-73
2022/12/17 18:31:04;;;;;;;44.37;30.20;;;-3.70;72.70;;;;;;5014375;28;20884;-73
2022/12/17 18:33:31;;;;;;;42.93;31.80;;;-3.70;72.60;;;;;;5014652;28;20495;-71
2022/12/17 18:35:58;;;;;;;51.37;30.40;;;-3.70;72.60;;;;;;5014663;28;20449;-72
2022/12/17 18:38:26;;;;;;;44.30;30.90;;;-3.70;73.10;;;;;;5014591;28;20471;-72
2022/12/17 18:40:53;;;;;;;42.90;29.13;;;-3.80;73.70;;;;;;5014211;28;21029;-72
2022/12/17 18:43:24;;;;;;;42.10;35.40;;;-3.80;74.90;;;;;;5014471;28;20456;-75
2022/12/17 18:45:51;;;;;;;47.17;31.00;;;-3.80;74.70;;;;;;5014481;28;20431;-71
2022/12/17 18:48:18;;;;;;;50.87;30.77;;;-3.90;75.30;;;;;;5014429;28;20499;-71
2022/12/17 18:50:45;;;;;;;46.43;29.17;;;-3.90;75.90;;;;;;5014138;28;20487;-71
2022/12/17 18:53:12;;;;;;;43.40;29.63;;;-3.90;76.10;;;;;;5014249;28;20487;-71
2022/12/17 18:55:40;;;;;;;41.53;28.30;;;-3.90;76.10;;;;;;5014292;28;20448;-72
2022/12/17 18:58:08;;;;;;;84.90;32.77;;;-3.90;76.00;;;;;;5014018;28;20953;-71
2022/12/17 19:00:37;;;;;;;91.03;34.67;;;-3.90;76.80;;;;;;5013930;28;20457;-73
2022/12/17 19:03:04;;;;;;;41.30;26.97;;;-4.20;78.00;;;;;;5014208;28;20431;-72
2022/12/17 19:05:31;;;;;;;72.40;30.90;;;-4.30;79.00;;;;;;5014165;28;20459;-73
2022/12/17 19:07:58;;;;;;;84.20;51.60;;;-4.40;79.00;;;;;;5014104;28;20448;-73
2022/12/17 19:10:24;;;;;;;65.23;38.53;;;-4.50;79.50;;;;;;5013633;28;20448;-73
2022/12/17 19:12:52;;;;;;;45.27;29.13;;;-4.40;79.80;;;;;;5013952;28;20891;-72
2022/12/17 19:15:19;;;;;;;41.20;27.77;;;-4.40;79.90;;;;;;5013933;28;20452;-71
2022/12/17 19:17:49;;;;;;;42.70;28.93;;;-4.30;79.90;;;;;;5013601;28;20938;-73
2022/12/17 19:20:17;;;;;;;37.00;26.33;;;-4.20;79.70;;;;;;5013896;28;20456;-73
2022/12/17 19:22:43;;;;;;;36.20;26.00;;;-4.30;79.70;;;;;;5013820;28;20464;-72
2022/12/17 19:25:10;;;;;;;37.70;26.93;;;-4.20;79.90;;;;;;5013574;28;20451;-72
2022/12/17 19:27:37;;;;;;;62.63;33.57;;;-4.30;79.70;;;;;;5013801;28;20458;-72
2022/12/17 19:30:06;;;;;;;42.77;32.07;;;-4.40;79.50;;;;;;5013747;28;20448;-72
2022/12/17 19:32:33;;;;;;;34.43;26.57;;;-4.40;80.50;;;;;;5013575;28;20608;-73
2022/12/17 19:35:00;;;;;;;44.77;29.73;;;-4.40;79.90;;;;;;5013389;28;20456;-72
2022/12/17 19:37:26;;;;;;;37.43;28.40;;;-4.40;78.90;;;;;;5013679;28;20460;-73
2022/12/17 19:39:53;;;;;;;43.60;29.83;;;-4.40;78.40;;;;;;5013575;28;20456;-72
2022/12/17 19:42:26;;;;;;;40.10;28.40;;;-4.30;78.10;;;;;;5013479;28;20480;-72
2022/12/17 19:44:53;;;;;;;42.87;27.57;;;-4.20;77.50;;;;;;5013595;28;20476;-72
2022/12/17 19:47:22;;;;;;;39.00;28.90;;;-4.20;76.70;;;;;;5013195;28;20445;-72
2022/12/17 19:49:49;;;;;;;40.03;30.10;;;-4.20;76.00;;;;;;5013177;28;20456;-71
2022/12/17 19:52:16;;;;;;;41.10;30.90;;;-4.20;75.80;;;;;;5013332;28;20473;-72
2022/12/17 19:54:42;;;;;;;40.73;29.53;;;-4.30;75.00;;;;;;5013136;28;20942;-72
2022/12/17 19:57:09;;;;;;;42.20;31.93;;;-4.40;74.70;;;;;;5013425;28;20456;-72
2022/12/17 19:59:36;;;;;;;40.40;28.67;;;-4.30;74.20;;;;;;5013398;28;20452;-72
2022/12/17 20:02:02;;;;;;;37.83;27.10;;;-4.30;74.10;;;;;;5014997;28;20488;-71
2022/12/17 20:04:30;;;;;;;35.93;25.20;;;-4.30;74.10;;;;;;5017166;28;20992;-72
2022/12/17 20:06:59;;;;;;;36.50;25.37;;;-4.30;73.70;;;;;;5017441;28;20456;-72
2022/12/17 20:09:26;;;;;;;35.80;25.03;;;-4.30;73.70;;;;;;5018033;28;20464;-72
2022/12/17 20:11:52;;;;;;;39.47;27.70;;;-4.30;73.70;;;;;;5016935;28;20985;-72
2022/12/17 20:14:22;;;;;;;39.40;30.40;;;-4.50;73.50;;;;;;5017291;28;20480;-73
2022/12/17 20:16:51;;;;;;;41.07;29.50;;;-4.50;73.60;;;;;;5016924;28;20938;-72
2022/12/17 20:19:20;;;;;;;42.80;29.23;;;-4.60;73.40;;;;;;5016883;28;20981;-72
2022/12/17 20:21:48;;;;;;;34.37;28.27;;;-4.80;73.80;;;;;;5017079;28;20522;-72
2022/12/17 20:24:16;;;;;;;38.53;26.07;;;-4.80;73.70;;;;;;5017098;28;20444;-72
2022/12/17 20:26:44;;;;;;;35.27;24.80;;;-4.70;73.70;;;;;;5017072;28;20451;-72
2022/12/17 20:29:11;;;;;;;34.40;23.67;;;-4.70;73.20;;;;;;5016987;28;20448;-72
2022/12/17 20:31:38;;;;;;;39.50;26.07;;;-4.70;73.00;;;;;;5016902;28;20472;-73
2022/12/17 20:34:07;;;;;;;34.90;22.13;;;-4.90;72.60;;;;;;5016914;28;20489;-72
2022/12/17 20:36:35;;;;;;;29.47;22.50;;;-5.10;73.30;;;;;;5016901;28;20448;-72
2022/12/17 20:39:03;;;;;;;33.90;24.73;;;-5.30;74.00;;;;;;5016513;28;20955;-70
2022/12/17 20:41:35;;;;;;;37.10;25.13;;;-5.30;74.10;;;;;;5016689;28;20479;-73
2022/12/17 20:44:04;;;;;;;29.43;23.50;;;-5.20;74.40;;;;;;5017026;28;20822;-72
2022/12/17 20:46:31;;;;;;;30.87;23.30;;;-5.10;74.40;;;;;;5016663;28;20454;-72
2022/12/17 20:48:58;;;;;;;31.47;22.97;;;-5.10;74.50;;;;;;5016674;28;20451;-72
2022/12/17 20:51:27;;;;;;;28.00;20.03;;;-5.00;74.20;;;;;;5016616;28;20461;-73
2022/12/17 20:53:55;;;;;;;30.27;21.57;;;-4.90;73.90;;;;;;5016522;28;20485;-73
2022/12/17 20:56:26;;;;;;;33.50;22.67;;;-4.90;73.70;;;;;;5016541;28;20856;-72
2022/12/17 20:58:54;;;;;;;31.00;21.57;;;-4.90;73.80;;;;;;5016507;28;20439;-72
2022/12/17 21:01:22;;;;;;;29.77;21.17;;;-4.80;74.30;;;;;;5016111;28;20490;-73
2022/12/17 21:03:51;;;;;;;34.97;21.50;;;-4.80;74.40;;;;;;5016403;28;20436;-73
2022/12/17 21:06:19;;;;;;;32.13;21.73;;;-4.70;74.40;;;;;;5016376;28;20452;-72
2022/12/17 21:08:48;;;;;;;31.17;20.63;;;-4.70;74.50;;;;;;5016301;28;20448;-73
2022/12/17 21:11:15;;;;;;;28.77;20.17;;;-4.70;74.40;;;;;;5016198;28;20469;-72
2022/12/17 21:13:43;;;;;;;26.30;18.60;;;-4.70;74.30;;;;;;5016075;28;20484;-73
2022/12/17 21:16:12;;;;;;;35.33;23.40;;;-4.70;74.70;;;;;;5015834;28;20456;-73
2022/12/17 21:18:39;;;;;;;26.67;19.47;;;-4.60;74.80;;;;;;5016119;28;20453;-73
2022/12/17 21:21:07;;;;;;;34.07;21.80;;;-4.60;74.70;;;;;;5015668;28;20843;-71
2022/12/17 21:23:36;;;;;;;25.97;20.20;;;-4.60;74.60;;;;;;5016003;28;20444;-73
2022/12/17 21:26:07;;;;;;;27.23;21.03;;;-4.50;74.40;;;;;;5015645;28;20888;-73
2022/12/17 21:28:36;;;;;;;30.17;21.73;;;-4.60;74.10;;;;;;5015659;28;20811;-73
2022/12/17 21:31:04;;;;;;;28.87;20.50;;;-4.50;74.20;;;;;;5015775;28;20460;-72
2022/12/17 21:33:32;;;;;;;26.30;18.30;;;-4.50;74.00;;;;;;5015794;28;20535;-72
2022/12/17 21:35:59;;;;;;;29.83;22.00;;;-4.50;73.80;;;;;;5015789;28;20448;-72
2022/12/17 21:38:26;;;;;;;30.53;21.53;;;-4.50;74.20;;;;;;5015783;28;20445;-72
2022/12/17 21:40:53;;;;;;;26.20;20.10;;;-4.50;74.10;;;;;;5015693;28;20899;-72
2022/12/17 21:43:20;;;;;;;27.30;19.93;;;-4.50;73.60;;;;;;5015660;28;20450;-72
2022/12/17 21:45:47;;;;;;;27.00;20.10;;;-4.50;73.60;;;;;;5015315;28;20897;-72
2022/12/17 21:48:15;;;;;;;24.27;17.67;;;-4.50;73.60;;;;;;5015581;28;20460;-73
2022/12/17 21:50:43;;;;;;;30.23;20.80;;;-4.50;73.50;;;;;;5015120;28;20977;-72
2022/12/17 21:53:11;;;;;;;26.97;19.20;;;-4.50;73.50;;;;;;5015388;28;20816;-70
2022/12/17 21:55:38;;;;;;;32.30;21.00;;;-4.50;73.10;;;;;;5015384;28;20456;-71
2022/12/17 21:58:05;;;;;;;32.97;23.77;;;-4.50;72.90;;;;;;5015066;28;20823;-72
